LIMF/TRN METAR and TAF weather

Enter ICAO airport designator
Station Type Date Time Source
LIMF METAR 2019/02/20 17:20 UTC NOAA

LIMF 201720Z VRB02KT 8000 NSC 11/03 Q1023


Station Type Date Time Source
LIMF Decoded METAR 2019/02/20 17:20 UTC NOAA

Torino / Caselle, Italy (LIMF) 45-13N 007-39E 287M
Feb 20, 2019 - 12:20 PM EST / 2019.02.20 1720 UTC
Wind: Variable at 2 MPH (2 KT):0
Visibility: 4 mile(s):0
Temperature: 51 F (11 C)
Dew Point: 37 F (3 C)
Relative Humidity: 57%
Pressure (altimeter): 30.21 in. Hg (1023 hPa)
ob: LIMF 201720Z VRB02KT 8000 NSC 11/03 Q1023
cycle: 17

Station Type Date Time Source
LIMF TAF 2019/02/20 18:23 UTC NOAA

TAF LIMF 201700Z 2018/2118 VRB05KT 7000 NSC
TEMPO 2102/2108 0800 FG


Example: see airport list